createdAt,value
2023-01-17T00:01:34.154Z,62.28
2023-01-17T00:04:22.883Z,62.46
2023-01-17T00:07:11.190Z,62.59
2023-01-17T00:09:54.079Z,62.33
2023-01-17T00:12:26.575Z,62.78
2023-01-17T00:14:58.979Z,62.19
2023-01-17T00:17:31.782Z,62.25
2023-01-17T00:20:20.373Z,62.28
2023-01-17T00:23:08.678Z,62.63
2023-01-17T00:25:58.458Z,62.85
2023-01-17T00:28:28.950Z,62.79
2023-01-17T00:30:58.530Z,62.60
2023-01-17T00:33:28.394Z,62.58
2023-01-17T00:35:59.563Z,62.65
2023-01-17T00:38:30.784Z,62.72
2023-01-17T00:41:05.685Z,62.84
2023-01-17T00:43:54.583Z,62.87
2023-01-17T00:46:43.481Z,62.58
2023-01-17T00:49:32.254Z,62.96
2023-01-17T00:52:21.072Z,62.29
2023-01-17T00:55:09.355Z,62.45
2023-01-17T00:57:57.975Z,62.56
2023-01-17T01:00:46.621Z,62.93
2023-01-17T01:03:35.540Z,63.02
2023-01-17T01:06:26.696Z,62.88
2023-01-17T01:09:14.825Z,63.07
2023-01-17T01:12:03.232Z,62.68
2023-01-17T01:14:51.585Z,62.68
2023-01-17T01:17:39.708Z,62.28
2023-01-17T01:20:29.985Z,62.28
2023-01-17T01:23:21.953Z,62.12
2023-01-17T01:26:10.189Z,61.84
2023-01-17T01:28:58.678Z,61.96
2023-01-17T01:31:47.250Z,61.52
2023-01-17T01:34:18.060Z,61.87
2023-01-17T01:36:48.733Z,62.34
2023-01-17T01:39:19.429Z,62.82
2023-01-17T01:41:50.107Z,62.39
2023-01-17T01:44:44.521Z,63.17
2023-01-17T01:47:21.061Z,62.86
2023-01-17T01:49:52.476Z,62.56
2023-01-17T01:52:26.611Z,62.70
2023-01-17T01:55:01.221Z,61.90
2023-01-17T01:57:36.414Z,61.16
2023-01-17T02:00:17.533Z,61.10
2023-01-17T02:02:50.899Z,62.55
2023-01-17T02:05:24.629Z,62.25
2023-01-17T02:08:00.043Z,61.14
2023-01-17T02:10:32.228Z,61.53
2023-01-17T02:13:03.765Z,60.89
2023-01-17T02:15:42.247Z,60.98
2023-01-17T02:18:23.521Z,61.65
2023-01-17T02:21:16.149Z,61.42
2023-01-17T02:24:41.101Z,60.65
2023-01-17T02:27:18.333Z,60.20
2023-01-17T02:30:32.976Z,60.64
2023-01-17T02:33:15.694Z,60.49
2023-01-17T02:35:55.612Z,60.30
2023-01-17T02:38:39.269Z,60.68
2023-01-17T02:41:17.644Z,60.98
2023-01-17T02:43:50.855Z,60.49
2023-01-17T02:46:21.847Z,60.81
2023-01-17T02:48:53.392Z,59.97
2023-01-17T02:51:46.330Z,60.52
2023-01-17T02:54:33.049Z,60.05
2023-01-17T02:57:22.631Z,61.12
2023-01-17T03:00:01.408Z,60.11
2023-01-17T03:02:39.600Z,60.90
2023-01-17T03:05:15.386Z,61.13
2023-01-17T03:07:48.258Z,60.72
2023-01-17T03:10:19.166Z,60.25
2023-01-17T03:12:49.987Z,60.40
2023-01-17T03:15:20.609Z,59.81
2023-01-17T03:17:54.506Z,59.58
2023-01-17T03:20:25.502Z,59.93
2023-01-17T03:22:56.317Z,60.27
2023-01-17T03:25:27.418Z,60.01
2023-01-17T03:27:58.744Z,59.73
2023-01-17T03:30:29.904Z,59.44
2023-01-17T03:33:00.665Z,58.94
2023-01-17T03:35:31.473Z,58.86
2023-01-17T03:38:02.147Z,58.77
2023-01-17T03:40:33.251Z,58.98
2023-01-17T03:43:03.949Z,59.23
2023-01-17T03:45:34.673Z,59.08
2023-01-17T03:48:06.311Z,58.87
2023-01-17T03:50:37.250Z,58.88
2023-01-17T03:53:08.128Z,58.69
2023-01-17T03:55:38.753Z,59.01
2023-01-17T03:58:09.822Z,59.16
2023-01-17T04:00:40.839Z,59.45
2023-01-17T04:03:11.687Z,59.25
2023-01-17T04:05:42.447Z,59.13
2023-01-17T04:08:16.102Z,59.18
2023-01-17T04:10:47.144Z,59.13
2023-01-17T04:13:18.121Z,59.03
2023-01-17T04:15:52.169Z,58.97
2023-01-17T04:18:25.007Z,59.11
2023-01-17T04:20:55.699Z,59.00
2023-01-17T04:23:26.461Z,59.64
2023-01-17T04:25:57.207Z,59.49
2023-01-17T04:28:27.914Z,59.31
2023-01-17T04:31:01.769Z,59.81
2023-01-17T04:33:32.512Z,59.64
2023-01-17T04:36:03.235Z,59.45
2023-01-17T04:38:35.165Z,59.62
2023-01-17T04:41:06.012Z,59.45
2023-01-17T04:43:36.889Z,59.24
2023-01-17T04:46:10.117Z,59.40
2023-01-17T04:48:40.870Z,59.57
2023-01-17T04:51:11.603Z,59.70
2023-01-17T04:53:42.474Z,59.51
2023-01-17T04:56:13.228Z,59.43
2023-01-17T04:58:43.866Z,60.15
2023-01-17T05:01:14.857Z,59.90
2023-01-17T05:03:45.668Z,59.21
2023-01-17T05:06:16.485Z,59.20
2023-01-17T05:08:47.347Z,59.07
2023-01-17T05:11:19.252Z,59.37
2023-01-17T05:13:52.114Z,59.33
2023-01-17T05:16:22.851Z,59.57
2023-01-17T05:18:54.945Z,59.59
2023-01-17T05:21:25.938Z,59.16
2023-01-17T05:23:56.744Z,59.04
2023-01-17T05:26:27.531Z,58.86
2023-01-17T05:28:58.206Z,58.99
2023-01-17T05:31:28.997Z,59.32
2023-01-17T05:33:59.556Z,58.84
2023-01-17T05:36:30.307Z,58.42
2023-01-17T05:39:01.088Z,58.91
2023-01-17T05:41:31.819Z,59.17
2023-01-17T05:44:02.569Z,59.07
2023-01-17T05:46:33.428Z,58.63
2023-01-17T05:49:04.285Z,58.60
2023-01-17T05:51:37.802Z,58.52
2023-01-17T05:54:08.936Z,58.39
2023-01-17T05:56:39.637Z,58.41
2023-01-17T05:59:12.065Z,58.50
2023-01-17T06:01:44.810Z,58.58
2023-01-17T06:04:15.591Z,58.30
2023-01-17T06:06:46.446Z,58.64
2023-01-17T06:09:17.517Z,58.64
2023-01-17T06:11:48.330Z,58.68
2023-01-17T06:14:19.092Z,58.50
2023-01-17T06:16:49.904Z,58.87
2023-01-17T06:19:20.574Z,59.28
2023-01-17T06:21:51.329Z,60.11
2023-01-17T06:24:22.129Z,59.70
2023-01-17T06:26:53.257Z,59.54
2023-01-17T06:29:24.149Z,59.76
2023-01-17T06:31:54.900Z,59.51
2023-01-17T06:34:25.960Z,59.71
2023-01-17T06:36:56.818Z,60.04
2023-01-17T06:39:27.543Z,60.27
2023-01-17T06:41:58.420Z,60.51
2023-01-17T06:44:29.205Z,60.46
2023-01-17T06:46:59.950Z,59.64
2023-01-17T06:49:30.533Z,59.35
2023-01-17T06:52:01.331Z,59.50
2023-01-17T06:54:31.940Z,59.07
2023-01-17T06:57:02.656Z,59.28
2023-01-17T06:59:33.279Z,59.28
2023-01-17T07:02:04.041Z,59.30
2023-01-17T07:04:35.450Z,59.45
2023-01-17T07:07:06.123Z,59.53
2023-01-17T07:09:36.728Z,59.31
2023-01-17T07:12:08.861Z,59.76
2023-01-17T07:14:39.599Z,59.56
2023-01-17T07:17:10.447Z,59.72
2023-01-17T07:19:41.203Z,59.83
2023-01-17T07:22:13.350Z,59.69
2023-01-17T07:24:44.329Z,59.43
2023-01-17T07:27:15.087Z,59.45
2023-01-17T07:29:45.718Z,59.53
2023-01-17T07:32:16.443Z,59.12
2023-01-17T07:34:47.173Z,59.37
2023-01-17T07:37:19.979Z,59.04
2023-01-17T07:39:50.945Z,59.07
2023-01-17T07:42:23.822Z,58.76
2023-01-17T07:44:54.933Z,59.19
2023-01-17T07:47:25.726Z,59.35
2023-01-17T07:49:56.324Z,58.99
2023-01-17T07:52:26.986Z,59.03
2023-01-17T07:54:57.624Z,59.08
2023-01-17T07:57:28.391Z,59.31
2023-01-17T07:59:59.053Z,59.47
2023-01-17T08:02:29.750Z,59.29
2023-01-17T08:05:00.350Z,59.50
2023-01-17T08:07:31.061Z,59.65
2023-01-17T08:10:01.774Z,59.66
2023-01-17T08:12:32.626Z,59.53
2023-01-17T08:15:03.435Z,59.64
2023-01-17T08:17:34.444Z,59.48
2023-01-17T08:20:06.170Z,59.32
2023-01-17T08:22:36.840Z,59.56
2023-01-17T08:25:08.832Z,59.21
2023-01-17T08:27:39.872Z,59.18
2023-01-17T08:30:12.953Z,59.09
2023-01-17T08:32:43.737Z,59.14
2023-01-17T08:35:14.396Z,59.10
2023-01-17T08:37:45.104Z,58.99
2023-01-17T08:40:17.843Z,59.11
2023-01-17T08:42:57.186Z,59.30
2023-01-17T08:45:29.202Z,58.99
2023-01-17T08:48:01.275Z,59.02
2023-01-17T08:50:32.105Z,59.18
2023-01-17T08:53:02.812Z,59.25
2023-01-17T08:55:37.827Z,59.59
2023-01-17T08:58:08.636Z,59.29
2023-01-17T09:00:39.810Z,59.30
2023-01-17T09:03:14.330Z,59.41
2023-01-17T09:05:44.914Z,59.20
2023-01-17T09:08:15.657Z,58.59
2023-01-17T09:10:46.623Z,57.20
2023-01-17T09:13:17.406Z,56.28
2023-01-17T09:15:48.054Z,55.59
2023-01-17T09:18:18.677Z,55.31
2023-01-17T09:20:49.311Z,55.15
2023-01-17T09:23:20.033Z,54.80
2023-01-17T09:25:56.319Z,54.73
2023-01-17T09:28:28.059Z,53.98
2023-01-17T09:30:58.789Z,53.05
2023-01-17T09:33:29.732Z,52.47
2023-01-17T09:36:04.232Z,51.91
2023-01-17T09:38:35.115Z,51.87
2023-01-17T09:41:19.342Z,50.79
2023-01-17T09:43:53.377Z,50.20
2023-01-17T09:46:29.789Z,50.00
2023-01-17T09:49:08.459Z,49.29
2023-01-17T09:51:39.764Z,48.99
2023-01-17T09:54:21.495Z,48.64
2023-01-17T09:57:01.874Z,48.65
2023-01-17T09:59:45.656Z,48.47
2023-01-17T10:02:42.718Z,48.51
2023-01-17T10:05:34.377Z,48.20
2023-01-17T10:08:17.836Z,49.09
2023-01-17T10:11:03.092Z,49.36
2023-01-17T10:13:47.004Z,49.15
2023-01-17T10:16:32.824Z,49.19
2023-01-17T10:19:17.290Z,49.55
2023-01-17T10:22:04.264Z,50.49
2023-01-17T10:24:54.465Z,50.91
2023-01-17T10:27:30.331Z,50.74
2023-01-17T10:30:02.398Z,51.21
2023-01-17T10:32:36.383Z,51.62
2023-01-17T10:35:21.512Z,51.87
2023-01-17T10:37:56.752Z,52.40
2023-01-17T10:40:36.502Z,52.70
2023-01-17T10:43:14.508Z,52.56
2023-01-17T10:45:53.075Z,52.39
2023-01-17T10:48:35.796Z,52.55
2023-01-17T10:51:15.964Z,52.74
2023-01-17T10:54:05.074Z,52.63
2023-01-17T10:56:39.062Z,52.61
2023-01-17T10:59:19.966Z,52.63
2023-01-17T11:01:51.393Z,52.57
2023-01-17T11:04:27.259Z,52.80
2023-01-17T11:09:57.477Z,53.23
2023-01-17T11:12:31.797Z,53.17
2023-01-17T11:15:07.394Z,53.06
2023-01-17T11:17:39.936Z,52.99
2023-01-17T11:20:21.004Z,52.82
2023-01-17T11:23:06.370Z,52.48
2023-01-17T11:25:37.421Z,52.32
2023-01-17T11:28:22.148Z,52.57
2023-01-17T11:30:58.626Z,52.25
2023-01-17T11:33:45.085Z,52.19
2023-01-17T11:36:25.003Z,52.28
2023-01-17T11:39:02.878Z,51.57
2023-01-17T11:41:38.092Z,50.73
2023-01-17T11:44:25.882Z,50.62
2023-01-17T11:47:19.080Z,50.91
2023-01-17T11:49:50.828Z,50.72
2023-01-17T11:52:28.468Z,50.11
2023-01-17T11:55:00.125Z,50.22
2023-01-17T11:57:33.368Z,49.71
2023-01-17T12:00:20.579Z,49.61
2023-01-17T12:03:16.124Z,50.02
2023-01-17T12:05:57.965Z,50.07
2023-01-17T12:08:53.213Z,49.43
2023-01-17T12:11:29.961Z,49.80
2023-01-17T12:14:13.014Z,50.39
2023-01-17T12:16:55.617Z,49.55
2023-01-17T12:19:54.818Z,49.48
2023-01-17T12:22:37.154Z,49.03
2023-01-17T12:25:23.607Z,48.95
2023-01-17T12:28:08.782Z,48.62
2023-01-17T12:30:54.122Z,48.75
2023-01-17T12:33:33.831Z,48.67
2023-01-17T12:36:17.759Z,48.85
2023-01-17T12:38:50.036Z,48.27
2023-01-17T12:41:26.488Z,48.41
2023-01-17T12:44:00.793Z,47.93
2023-01-17T12:46:38.635Z,48.08
2023-01-17T12:49:24.115Z,47.96
2023-01-17T12:52:00.356Z,47.98
2023-01-17T12:54:38.004Z,48.21
2023-01-17T12:57:16.473Z,48.09
2023-01-17T12:59:53.445Z,48.04
2023-01-17T13:02:33.595Z,48.12
2023-01-17T13:05:08.700Z,48.28
2023-01-17T13:07:48.685Z,48.24
2023-01-17T13:10:26.429Z,48.34
2023-01-17T13:13:01.550Z,48.25
2023-01-17T13:15:38.995Z,48.12
2023-01-17T13:18:15.622Z,48.59
2023-01-17T13:21:08.686Z,48.43
2023-01-17T13:23:59.005Z,48.00
2023-01-17T13:26:41.506Z,48.24
2023-01-17T13:29:22.108Z,48.25
2023-01-17T13:31:59.261Z,48.38
2023-01-17T13:34:52.895Z,48.85
2023-01-17T13:37:42.558Z,48.83
2023-01-17T13:40:34.153Z,48.98
2023-01-17T13:43:06.289Z,48.71
2023-01-17T13:45:39.162Z,48.69
2023-01-17T13:48:26.843Z,48.91
2023-01-17T13:50:58.669Z,49.26
2023-01-17T13:54:00.928Z,49.43
2023-01-17T13:56:38.485Z,49.46
2023-01-17T13:59:30.637Z,49.52
2023-01-17T14:02:01.657Z,49.68
2023-01-17T14:05:06.104Z,50.09
2023-01-17T14:07:41.909Z,50.01
2023-01-17T14:10:33.852Z,49.95
2023-01-17T14:13:07.254Z,49.93
2023-01-17T14:15:50.932Z,50.13
2023-01-17T14:18:35.033Z,49.90
2023-01-17T14:21:14.734Z,49.85
2023-01-17T14:24:06.288Z,50.01
2023-01-17T14:26:43.172Z,50.42
2023-01-17T14:30:00.487Z,50.62
2023-01-17T14:32:34.482Z,50.48
2023-01-17T14:35:06.513Z,50.77
2023-01-17T14:37:50.679Z,50.83
2023-01-17T14:40:26.377Z,50.88
2023-01-17T14:43:03.744Z,51.20
2023-01-17T14:45:36.946Z,51.22
2023-01-17T14:48:20.115Z,51.31
2023-01-17T14:50:52.407Z,51.27
2023-01-17T14:53:26.021Z,51.18
2023-01-17T14:55:59.462Z,51.46
2023-01-17T14:58:32.388Z,51.26
2023-01-17T15:01:03.182Z,51.31
2023-01-17T15:03:42.986Z,51.54
2023-01-17T15:06:21.869Z,51.76
2023-01-17T15:08:53.954Z,51.85
2023-01-17T15:11:27.099Z,51.51
2023-01-17T15:14:00.357Z,51.55
2023-01-17T15:16:34.457Z,51.52
2023-01-17T15:19:11.277Z,51.62
2023-01-17T15:21:44.461Z,51.58
2023-01-17T15:24:20.629Z,51.55
2023-01-17T15:26:52.014Z,51.26
2023-01-17T15:29:27.703Z,51.56
2023-01-17T15:32:00.330Z,51.50
2023-01-17T15:34:33.662Z,51.54
2023-01-17T15:37:08.875Z,51.64
2023-01-17T15:39:42.145Z,51.88
2023-01-17T15:42:23.929Z,52.37
2023-01-17T15:44:58.458Z,52.67
2023-01-17T15:47:32.932Z,52.55
2023-01-17T15:50:30.150Z,52.36
2023-01-17T15:53:02.990Z,52.74
2023-01-17T15:55:36.977Z,53.45
2023-01-17T15:58:23.916Z,53.77
2023-01-17T16:00:54.827Z,53.51
2023-01-17T16:03:29.349Z,53.51
2023-01-17T16:06:03.006Z,54.08
2023-01-17T16:08:39.527Z,54.08
2023-01-17T16:11:15.116Z,53.68
2023-01-17T16:13:47.356Z,53.96
2023-01-17T16:16:24.230Z,54.11
2023-01-17T16:19:01.258Z,54.38
2023-01-17T16:21:33.643Z,54.41
2023-01-17T16:24:06.831Z,54.55
2023-01-17T16:26:37.502Z,54.45
2023-01-17T16:29:08.457Z,54.61
2023-01-17T16:31:39.072Z,54.82
2023-01-17T16:34:13.597Z,54.89
2023-01-17T16:36:44.333Z,55.05
2023-01-17T16:39:16.775Z,54.79
2023-01-17T16:41:47.774Z,54.79
2023-01-17T16:44:18.651Z,55.05
2023-01-17T16:46:49.372Z,55.21
2023-01-17T16:49:20.241Z,55.37
2023-01-17T16:51:51.741Z,55.51
2023-01-17T16:54:22.436Z,55.57
2023-01-17T16:56:53.349Z,55.55
2023-01-17T16:59:24.121Z,55.75
2023-01-17T17:01:54.849Z,55.94
2023-01-17T17:04:25.624Z,55.92
2023-01-17T17:06:56.519Z,55.97
2023-01-17T17:09:27.449Z,56.26
2023-01-17T17:11:58.362Z,56.56
2023-01-17T17:14:29.397Z,56.16
2023-01-17T17:17:03.156Z,56.70
2023-01-17T17:19:34.462Z,56.76
2023-01-17T17:22:06.645Z,56.75
2023-01-17T17:24:37.483Z,57.11
2023-01-17T17:27:08.129Z,57.14
2023-01-17T17:29:38.851Z,57.18
2023-01-17T17:32:11.567Z,57.30
2023-01-17T17:34:42.199Z,57.26
2023-01-17T17:37:13.564Z,57.45
2023-01-17T17:39:44.512Z,57.40
2023-01-17T17:42:15.538Z,57.56
2023-01-17T17:44:46.282Z,57.60
2023-01-17T17:47:17.853Z,60.47
2023-01-17T17:49:48.571Z,59.13
2023-01-17T17:52:19.234Z,58.51
2023-01-17T17:54:50.348Z,58.52
2023-01-17T17:57:21.016Z,58.62
2023-01-17T17:59:51.684Z,57.87
2023-01-17T18:02:22.354Z,57.80
2023-01-17T18:04:53.234Z,58.07
2023-01-17T18:07:24.108Z,58.35
2023-01-17T18:09:54.794Z,58.69
2023-01-17T18:12:25.464Z,59.07
2023-01-17T18:14:56.061Z,58.97
2023-01-17T18:17:26.971Z,59.15
2023-01-17T18:19:57.583Z,59.46
2023-01-17T18:22:28.242Z,60.23
2023-01-17T18:24:59.024Z,60.06
2023-01-17T18:27:29.688Z,60.08
2023-01-17T18:30:00.578Z,60.05
2023-01-17T18:32:31.363Z,60.38
2023-01-17T18:35:04.038Z,60.54
2023-01-17T18:37:34.788Z,60.57
2023-01-17T18:40:07.140Z,60.98
2023-01-17T18:42:39.026Z,61.26
2023-01-17T18:45:11.879Z,60.96
2023-01-17T18:47:42.621Z,61.33
2023-01-17T18:50:13.970Z,61.41
2023-01-17T18:52:44.913Z,61.75
2023-01-17T18:55:15.792Z,61.76
2023-01-17T18:57:47.175Z,61.75
2023-01-17T19:00:20.026Z,61.63
2023-01-17T19:02:51.891Z,61.67
2023-01-17T19:05:24.682Z,62.22
2023-01-17T19:07:55.917Z,62.18
2023-01-17T19:10:27.622Z,62.10
2023-01-17T19:12:58.919Z,61.92
2023-01-17T19:15:32.860Z,62.38
2023-01-17T19:18:08.627Z,63.62
2023-01-17T19:20:39.590Z,63.55
2023-01-17T19:23:10.342Z,63.49
2023-01-17T19:25:41.150Z,63.23
2023-01-17T19:28:11.841Z,63.07
2023-01-17T19:30:42.570Z,63.23
2023-01-17T19:33:13.246Z,63.29
2023-01-17T19:35:44.138Z,63.20
2023-01-17T19:38:15.397Z,63.33
2023-01-17T19:40:46.584Z,63.49
2023-01-17T19:43:17.797Z,63.58
2023-01-17T19:45:58.543Z,63.33
2023-01-17T19:48:30.076Z,63.25
2023-01-17T19:51:06.722Z,62.92
2023-01-17T19:53:41.703Z,62.92
2023-01-17T19:56:15.906Z,63.05
2023-01-17T19:58:48.079Z,62.83
2023-01-17T20:01:20.464Z,62.97
2023-01-17T20:03:51.479Z,62.91
2023-01-17T20:06:24.256Z,63.00
2023-01-17T20:08:58.665Z,63.28
2023-01-17T20:11:33.764Z,63.77
2023-01-17T20:14:05.562Z,63.83
2023-01-17T20:16:38.051Z,63.76
2023-01-17T20:19:08.803Z,63.55
2023-01-17T20:21:39.671Z,63.50
2023-01-17T20:24:14.262Z,63.55
2023-01-17T20:26:44.913Z,63.80
2023-01-17T20:29:17.918Z,63.74
2023-01-17T20:31:52.351Z,64.29
2023-01-17T20:34:25.835Z,64.11
2023-01-17T20:36:59.374Z,64.20
2023-01-17T20:39:30.618Z,64.20
2023-01-17T20:42:01.300Z,63.69
2023-01-17T20:44:34.387Z,63.67
2023-01-17T20:47:05.094Z,64.15
2023-01-17T20:49:35.762Z,64.11
2023-01-17T20:52:07.044Z,63.69
2023-01-17T20:54:37.663Z,63.98
2023-01-17T20:57:08.477Z,64.18
2023-01-17T20:59:39.231Z,64.16
2023-01-17T21:02:10.988Z,64.46
2023-01-17T21:04:41.948Z,64.88
2023-01-17T21:07:12.686Z,64.76
2023-01-17T21:09:43.882Z,64.79
2023-01-17T21:12:15.999Z,65.42
2023-01-17T21:14:46.722Z,65.88
2023-01-17T21:17:17.493Z,66.10
2023-01-17T21:19:48.155Z,66.16
2023-01-17T21:22:18.838Z,66.26
2023-01-17T21:24:49.553Z,66.15
2023-01-17T21:27:21.633Z,65.99
2023-01-17T21:29:53.630Z,65.80
2023-01-17T21:32:24.795Z,65.56
2023-01-17T21:34:55.619Z,65.56
2023-01-17T21:37:26.239Z,65.55
2023-01-17T21:39:56.961Z,65.39
2023-01-17T21:42:27.738Z,65.20
2023-01-17T21:44:58.528Z,65.51
2023-01-17T21:47:29.195Z,65.63
2023-01-17T21:49:59.950Z,65.41
2023-01-17T21:52:31.651Z,65.59
2023-01-17T21:55:20.216Z,65.25
2023-01-17T21:58:08.616Z,65.66
2023-01-17T22:00:43.019Z,66.21
2023-01-17T22:03:13.904Z,66.58
2023-01-17T22:05:44.498Z,66.71
2023-01-17T22:08:15.567Z,66.50
2023-01-17T22:10:47.080Z,66.72
2023-01-17T22:13:19.718Z,66.43
2023-01-17T22:16:00.582Z,66.57
2023-01-17T22:18:32.493Z,66.82
2023-01-17T22:21:07.397Z,66.29
2023-01-17T22:23:39.561Z,66.27
2023-01-17T22:26:11.835Z,66.17
2023-01-17T22:28:43.662Z,66.25
2023-01-17T22:31:16.425Z,66.25
2023-01-17T22:33:48.980Z,65.91
2023-01-17T22:36:20.194Z,66.08
2023-01-17T22:38:51.066Z,66.28
2023-01-17T22:41:23.434Z,66.21
2023-01-17T22:43:57.681Z,66.23
2023-01-17T22:46:31.845Z,66.19
2023-01-17T22:49:02.848Z,66.21
2023-01-17T22:51:33.636Z,66.05
2023-01-17T22:54:04.264Z,66.13
2023-01-17T22:56:36.012Z,66.18
2023-01-17T22:59:11.414Z,66.32
2023-01-17T23:01:42.492Z,66.43
2023-01-17T23:04:15.972Z,66.40
2023-01-17T23:06:46.786Z,66.52
2023-01-17T23:09:18.300Z,66.45
2023-01-17T23:11:52.693Z,66.61
2023-01-17T23:14:28.151Z,66.37
2023-01-17T23:17:19.068Z,66.65
2023-01-17T23:19:51.387Z,66.48
2023-01-17T23:22:23.678Z,66.78
2023-01-17T23:24:56.173Z,66.61
2023-01-17T23:27:46.766Z,66.77
2023-01-17T23:30:19.073Z,66.94
2023-01-17T23:32:51.316Z,66.90
2023-01-17T23:35:24.019Z,66.87
2023-01-17T23:38:13.272Z,67.16
2023-01-17T23:41:04.430Z,67.06
2023-01-17T23:43:36.325Z,67.13
2023-01-17T23:46:12.044Z,67.00
2023-01-17T23:48:42.815Z,67.31
2023-01-17T23:51:13.549Z,67.33
2023-01-17T23:53:44.274Z,66.76
2023-01-17T23:56:18.215Z,66.86
2023-01-17T23:58:49.236Z,66.83
